sensor_id;sensor_type;location;lat;lon;timestamp;P1;durP1;ratioP1;P2;durP2;ratioP2
43809;SDS011;29440;48.208;11.162;2023-01-01T00:00:03;110.90;;;50.75;;
43809;SDS011;29440;48.208;11.162;2023-01-01T00:02:30;46.95;;;23.13;;
43809;SDS011;29440;48.208;11.162;2023-01-01T00:04:56;32.35;;;17.98;;
43809;SDS011;29440;48.208;11.162;2023-01-01T00:07:22;55.10;;;24.58;;
43809;SDS011;29440;48.208;11.162;2023-01-01T00:09:48;44.33;;;20.92;;
43809;SDS011;29440;48.208;11.162;2023-01-01T00:12:32;30.63;;;16.67;;
43809;SDS011;29440;48.208;11.162;2023-01-01T00:14:58;24.13;;;13.00;;
43809;SDS011;29440;48.208;11.162;2023-01-01T00:17:23;40.40;;;18.35;;
43809;SDS011;29440;48.208;11.162;2023-01-01T00:19:49;29.63;;;15.38;;
43809;SDS011;29440;48.208;11.162;2023-01-01T00:22:14;19.77;;;10.35;;
43809;SDS011;29440;48.208;11.162;2023-01-01T00:24:40;15.50;;;9.73;;
43809;SDS011;29440;48.208;11.162;2023-01-01T00:27:06;15.77;;;8.68;;
43809;SDS011;29440;48.208;11.162;2023-01-01T00:29:31;13.43;;;7.65;;
43809;SDS011;29440;48.208;11.162;2023-01-01T00:31:57;20.20;;;10.75;;
43809;SDS011;29440;48.208;11.162;2023-01-01T00:34:23;16.27;;;9.68;;
43809;SDS011;29440;48.208;11.162;2023-01-01T00:36:48;17.83;;;8.15;;
43809;SDS011;29440;48.208;11.162;2023-01-01T00:39:14;15.45;;;8.98;;
43809;SDS011;29440;48.208;11.162;2023-01-01T00:41:41;22.83;;;12.32;;
43809;SDS011;29440;48.208;11.162;2023-01-01T00:44:06;24.35;;;12.40;;
43809;SDS011;29440;48.208;11.162;2023-01-01T00:46:32;30.08;;;13.88;;
43809;SDS011;29440;48.208;11.162;2023-01-01T00:48:57;24.30;;;11.25;;
43809;SDS011;29440;48.208;11.162;2023-01-01T00:51:23;20.27;;;11.38;;
43809;SDS011;29440;48.208;11.162;2023-01-01T00:53:49;24.45;;;12.77;;
43809;SDS011;29440;48.208;11.162;2023-01-01T00:56:17;22.73;;;12.65;;
43809;SDS011;29440;48.208;11.162;2023-01-01T00:58:42;25.95;;;12.45;;
43809;SDS011;29440;48.208;11.162;2023-01-01T01:01:08;22.98;;;12.70;;
43809;SDS011;29440;48.208;11.162;2023-01-01T01:03:34;21.90;;;12.77;;
43809;SDS011;29440;48.208;11.162;2023-01-01T01:08:29;24.05;;;12.50;;
43809;SDS011;29440;48.208;11.162;2023-01-01T01:11:03;29.02;;;16.58;;
43809;SDS011;29440;48.208;11.162;2023-01-01T01:13:35;33.72;;;18.00;;
43809;SDS011;29440;48.208;11.162;2023-01-01T01:16:00;36.22;;;18.63;;
43809;SDS011;29440;48.208;11.162;2023-01-01T01:18:31;33.08;;;17.52;;
43809;SDS011;29440;48.208;11.162;2023-01-01T01:20:57;27.95;;;15.77;;
43809;SDS011;29440;48.208;11.162;2023-01-01T01:23:22;30.17;;;15.00;;
43809;SDS011;29440;48.208;11.162;2023-01-01T01:25:48;26.00;;;14.20;;
43809;SDS011;29440;48.208;11.162;2023-01-01T01:28:13;27.52;;;13.35;;
43809;SDS011;29440;48.208;11.162;2023-01-01T01:30:39;23.20;;;13.52;;
43809;SDS011;29440;48.208;11.162;2023-01-01T01:33:05;26.25;;;12.75;;
43809;SDS011;29440;48.208;11.162;2023-01-01T01:35:31;23.65;;;12.02;;
43809;SDS011;29440;48.208;11.162;2023-01-01T01:37:57;24.17;;;12.05;;
43809;SDS011;29440;48.208;11.162;2023-01-01T01:40:23;21.15;;;11.77;;
43809;SDS011;29440;48.208;11.162;2023-01-01T01:42:49;20.17;;;11.60;;
43809;SDS011;29440;48.208;11.162;2023-01-01T01:45:15;22.75;;;12.50;;
43809;SDS011;29440;48.208;11.162;2023-01-01T01:47:48;25.30;;;13.07;;
43809;SDS011;29440;48.208;11.162;2023-01-01T01:50:25;21.67;;;12.25;;
43809;SDS011;29440;48.208;11.162;2023-01-01T01:53:04;22.77;;;12.23;;
43809;SDS011;29440;48.208;11.162;2023-01-01T01:55:43;22.77;;;11.83;;
43809;SDS011;29440;48.208;11.162;2023-01-01T01:58:13;22.40;;;12.65;;
43809;SDS011;29440;48.208;11.162;2023-01-01T02:00:40;23.63;;;12.23;;
43809;SDS011;29440;48.208;11.162;2023-01-01T02:03:10;26.77;;;13.40;;
43809;SDS011;29440;48.208;11.162;2023-01-01T02:05:40;25.20;;;14.02;;
43809;SDS011;29440;48.208;11.162;2023-01-01T02:08:06;24.55;;;14.02;;
43809;SDS011;29440;48.208;11.162;2023-01-01T02:10:33;24.42;;;14.00;;
43809;SDS011;29440;48.208;11.162;2023-01-01T02:12:59;28.80;;;14.95;;
43809;SDS011;29440;48.208;11.162;2023-01-01T02:15:27;31.23;;;18.15;;
43809;SDS011;29440;48.208;11.162;2023-01-01T02:18:00;33.45;;;19.00;;
43809;SDS011;29440;48.208;11.162;2023-01-01T02:20:41;35.58;;;18.13;;
43809;SDS011;29440;48.208;11.162;2023-01-01T02:29:05;32.22;;;18.52;;
43809;SDS011;29440;48.208;11.162;2023-01-01T02:35:03;31.67;;;16.67;;
43809;SDS011;29440;48.208;11.162;2023-01-01T02:37:55;33.05;;;17.88;;
43809;SDS011;29440;48.208;11.162;2023-01-01T02:40:23;28.70;;;16.77;;
43809;SDS011;29440;48.208;11.162;2023-01-01T02:42:51;29.20;;;16.98;;
43809;SDS011;29440;48.208;11.162;2023-01-01T02:45:18;29.33;;;17.02;;
43809;SDS011;29440;48.208;11.162;2023-01-01T02:47:44;35.45;;;17.70;;
43809;SDS011;29440;48.208;11.162;2023-01-01T02:50:13;32.13;;;18.15;;
43809;SDS011;29440;48.208;11.162;2023-01-01T02:52:58;30.10;;;16.27;;
43809;SDS011;29440;48.208;11.162;2023-01-01T02:58:26;25.23;;;14.73;;
43809;SDS011;29440;48.208;11.162;2023-01-01T03:01:26;26.80;;;15.43;;
43809;SDS011;29440;48.208;11.162;2023-01-01T03:04:07;27.13;;;15.30;;
43809;SDS011;29440;48.208;11.162;2023-01-01T03:09:22;26.98;;;15.05;;
43809;SDS011;29440;48.208;11.162;2023-01-01T03:12:09;27.55;;;14.48;;
43809;SDS011;29440;48.208;11.162;2023-01-01T03:20:30;25.02;;;13.48;;
43809;SDS011;29440;48.208;11.162;2023-01-01T03:23:00;22.60;;;13.07;;
43809;SDS011;29440;48.208;11.162;2023-01-01T03:25:30;25.63;;;13.90;;
43809;SDS011;29440;48.208;11.162;2023-01-01T03:28:10;24.58;;;14.27;;
43809;SDS011;29440;48.208;11.162;2023-01-01T03:30:39;24.38;;;13.27;;
43809;SDS011;29440;48.208;11.162;2023-01-01T03:33:17;23.02;;;13.50;;
43809;SDS011;29440;48.208;11.162;2023-01-01T03:35:56;24.92;;;12.65;;
43809;SDS011;29440;48.208;11.162;2023-01-01T03:41:02;18.23;;;11.50;;
43809;SDS011;29440;48.208;11.162;2023-01-01T03:43:40;18.50;;;11.30;;
43809;SDS011;29440;48.208;11.162;2023-01-01T03:46:30;17.27;;;9.25;;
43809;SDS011;29440;48.208;11.162;2023-01-01T03:48:58;18.60;;;9.93;;
43809;SDS011;29440;48.208;11.162;2023-01-01T03:51:48;20.10;;;9.23;;
43809;SDS011;29440;48.208;11.162;2023-01-01T03:54:26;17.58;;;8.85;;
43809;SDS011;29440;48.208;11.162;2023-01-01T03:57:07;16.48;;;9.40;;
43809;SDS011;29440;48.208;11.162;2023-01-01T04:00:19;17.73;;;9.68;;
43809;SDS011;29440;48.208;11.162;2023-01-01T04:02:45;17.17;;;9.85;;
43809;SDS011;29440;48.208;11.162;2023-01-01T04:05:18;16.60;;;8.98;;
43809;SDS011;29440;48.208;11.162;2023-01-01T04:07:45;17.35;;;9.45;;
43809;SDS011;29440;48.208;11.162;2023-01-01T04:10:11;16.02;;;9.85;;
43809;SDS011;29440;48.208;11.162;2023-01-01T04:12:47;22.70;;;10.77;;
43809;SDS011;29440;48.208;11.162;2023-01-01T04:15:15;50.88;;;12.57;;
43809;SDS011;29440;48.208;11.162;2023-01-01T04:17:46;18.83;;;10.20;;
43809;SDS011;29440;48.208;11.162;2023-01-01T04:20:12;18.70;;;10.25;;
43809;SDS011;29440;48.208;11.162;2023-01-01T04:22:38;16.70;;;9.63;;
43809;SDS011;29440;48.208;11.162;2023-01-01T04:25:04;19.00;;;10.07;;
43809;SDS011;29440;48.208;11.162;2023-01-01T04:27:30;17.30;;;9.00;;
43809;SDS011;29440;48.208;11.162;2023-01-01T04:32:40;14.68;;;7.32;;
43809;SDS011;29440;48.208;11.162;2023-01-01T04:35:06;15.23;;;7.97;;
43809;SDS011;29440;48.208;11.162;2023-01-01T04:37:36;13.68;;;7.55;;
43809;SDS011;29440;48.208;11.162;2023-01-01T04:40:03;15.75;;;7.25;;
43809;SDS011;29440;48.208;11.162;2023-01-01T04:42:29;16.95;;;7.53;;
43809;SDS011;29440;48.208;11.162;2023-01-01T04:44:55;15.35;;;7.22;;
43809;SDS011;29440;48.208;11.162;2023-01-01T04:47:21;14.25;;;6.40;;
43809;SDS011;29440;48.208;11.162;2023-01-01T04:49:46;12.25;;;6.32;;
43809;SDS011;29440;48.208;11.162;2023-01-01T04:52:12;13.75;;;6.55;;
43809;SDS011;29440;48.208;11.162;2023-01-01T04:54:37;12.55;;;6.47;;
43809;SDS011;29440;48.208;11.162;2023-01-01T04:57:03;14.88;;;6.45;;
43809;SDS011;29440;48.208;11.162;2023-01-01T04:59:29;14.52;;;6.72;;
43809;SDS011;29440;48.208;11.162;2023-01-01T05:01:55;14.60;;;6.68;;
43809;SDS011;29440;48.208;11.162;2023-01-01T05:04:21;15.68;;;6.00;;
43809;SDS011;29440;48.208;11.162;2023-01-01T05:06:46;14.00;;;6.43;;
43809;SDS011;29440;48.208;11.162;2023-01-01T05:09:12;10.55;;;5.55;;
43809;SDS011;29440;48.208;11.162;2023-01-01T05:11:37;10.93;;;5.40;;
43809;SDS011;29440;48.208;11.162;2023-01-01T05:14:03;9.48;;;5.35;;
43809;SDS011;29440;48.208;11.162;2023-01-01T05:16:36;12.02;;;5.40;;
43809;SDS011;29440;48.208;11.162;2023-01-01T05:19:03;8.27;;;4.82;;
43809;SDS011;29440;48.208;11.162;2023-01-01T05:21:30;8.57;;;5.15;;
43809;SDS011;29440;48.208;11.162;2023-01-01T05:23:58;10.10;;;4.10;;
43809;SDS011;29440;48.208;11.162;2023-01-01T05:26:30;7.63;;;3.97;;
43809;SDS011;29440;48.208;11.162;2023-01-01T05:28:57;7.28;;;3.70;;
43809;SDS011;29440;48.208;11.162;2023-01-01T05:31:25;10.27;;;3.80;;
43809;SDS011;29440;48.208;11.162;2023-01-01T05:33:52;7.65;;;3.97;;
43809;SDS011;29440;48.208;11.162;2023-01-01T05:36:22;8.15;;;3.78;;
43809;SDS011;29440;48.208;11.162;2023-01-01T05:38:50;7.40;;;3.92;;
43809;SDS011;29440;48.208;11.162;2023-01-01T05:41:16;9.45;;;3.97;;
43809;SDS011;29440;48.208;11.162;2023-01-01T05:43:43;7.55;;;3.92;;
43809;SDS011;29440;48.208;11.162;2023-01-01T05:46:09;7.85;;;4.10;;
43809;SDS011;29440;48.208;11.162;2023-01-01T05:48:36;6.18;;;3.10;;
43809;SDS011;29440;48.208;11.162;2023-01-01T05:51:07;8.98;;;3.90;;
43809;SDS011;29440;48.208;11.162;2023-01-01T05:53:34;7.03;;;3.20;;
43809;SDS011;29440;48.208;11.162;2023-01-01T05:55:59;8.20;;;3.47;;
43809;SDS011;29440;48.208;11.162;2023-01-01T05:58:26;6.00;;;3.58;;
43809;SDS011;29440;48.208;11.162;2023-01-01T06:00:52;5.63;;;3.08;;
43809;SDS011;29440;48.208;11.162;2023-01-01T06:03:18;5.22;;;2.95;;
43809;SDS011;29440;48.208;11.162;2023-01-01T06:05:44;7.97;;;2.90;;
43809;SDS011;29440;48.208;11.162;2023-01-01T06:08:10;5.43;;;3.05;;
43809;SDS011;29440;48.208;11.162;2023-01-01T06:10:35;7.50;;;2.95;;
43809;SDS011;29440;48.208;11.162;2023-01-01T06:13:01;5.45;;;2.78;;
43809;SDS011;29440;48.208;11.162;2023-01-01T06:15:26;8.15;;;2.90;;
43809;SDS011;29440;48.208;11.162;2023-01-01T06:17:52;6.22;;;3.03;;
43809;SDS011;29440;48.208;11.162;2023-01-01T06:20:18;6.47;;;2.70;;
43809;SDS011;29440;48.208;11.162;2023-01-01T06:22:44;6.30;;;2.90;;
43809;SDS011;29440;48.208;11.162;2023-01-01T06:25:10;4.72;;;2.42;;
43809;SDS011;29440;48.208;11.162;2023-01-01T06:27:36;10.32;;;4.20;;
43809;SDS011;29440;48.208;11.162;2023-01-01T06:30:06;9.80;;;5.03;;
43809;SDS011;29440;48.208;11.162;2023-01-01T06:32:32;10.40;;;6.13;;
43809;SDS011;29440;48.208;11.162;2023-01-01T06:34:58;9.55;;;5.80;;
43809;SDS011;29440;48.208;11.162;2023-01-01T06:37:23;13.18;;;5.32;;
43809;SDS011;29440;48.208;11.162;2023-01-01T06:39:49;9.15;;;4.65;;
43809;SDS011;29440;48.208;11.162;2023-01-01T06:42:15;10.57;;;5.20;;
43809;SDS011;29440;48.208;11.162;2023-01-01T06:44:40;8.68;;;4.95;;
43809;SDS011;29440;48.208;11.162;2023-01-01T06:47:06;8.32;;;4.35;;
43809;SDS011;29440;48.208;11.162;2023-01-01T06:49:32;8.07;;;4.15;;
43809;SDS011;29440;48.208;11.162;2023-01-01T06:51:57;10.00;;;6.20;;
43809;SDS011;29440;48.208;11.162;2023-01-01T06:54:23;8.63;;;4.43;;
43809;SDS011;29440;48.208;11.162;2023-01-01T06:56:48;8.73;;;4.30;;
43809;SDS011;29440;48.208;11.162;2023-01-01T06:59:17;9.48;;;5.28;;
43809;SDS011;29440;48.208;11.162;2023-01-01T07:01:42;18.42;;;7.15;;
43809;SDS011;29440;48.208;11.162;2023-01-01T07:04:13;6.28;;;3.70;;
43809;SDS011;29440;48.208;11.162;2023-01-01T07:06:39;5.70;;;2.88;;
43809;SDS011;29440;48.208;11.162;2023-01-01T07:09:05;5.72;;;3.08;;
43809;SDS011;29440;48.208;11.162;2023-01-01T07:11:31;6.32;;;3.45;;
43809;SDS011;29440;48.208;11.162;2023-01-01T07:13:57;6.25;;;2.30;;
43809;SDS011;29440;48.208;11.162;2023-01-01T07:16:23;6.22;;;2.58;;
43809;SDS011;29440;48.208;11.162;2023-01-01T07:18:49;5.30;;;2.17;;
43809;SDS011;29440;48.208;11.162;2023-01-01T07:23:56;4.72;;;2.20;;
43809;SDS011;29440;48.208;11.162;2023-01-01T07:26:23;6.13;;;2.20;;
43809;SDS011;29440;48.208;11.162;2023-01-01T07:28:52;5.00;;;2.92;;
43809;SDS011;29440;48.208;11.162;2023-01-01T07:31:18;5.85;;;2.22;;
43809;SDS011;29440;48.208;11.162;2023-01-01T07:33:44;4.47;;;2.22;;
43809;SDS011;29440;48.208;11.162;2023-01-01T07:36:10;4.18;;;1.98;;
43809;SDS011;29440;48.208;11.162;2023-01-01T07:38:36;4.78;;;2.70;;
43809;SDS011;29440;48.208;11.162;2023-01-01T07:41:02;4.47;;;2.33;;
43809;SDS011;29440;48.208;11.162;2023-01-01T07:43:27;5.10;;;2.63;;
43809;SDS011;29440;48.208;11.162;2023-01-01T07:45:53;5.80;;;2.45;;
43809;SDS011;29440;48.208;11.162;2023-01-01T07:48:19;6.40;;;3.17;;
43809;SDS011;29440;48.208;11.162;2023-01-01T07:50:45;5.30;;;3.13;;
43809;SDS011;29440;48.208;11.162;2023-01-01T07:53:11;4.50;;;2.72;;
43809;SDS011;29440;48.208;11.162;2023-01-01T07:55:37;5.07;;;2.85;;
43809;SDS011;29440;48.208;11.162;2023-01-01T07:58:03;7.80;;;2.83;;
43809;SDS011;29440;48.208;11.162;2023-01-01T08:00:29;5.63;;;2.67;;
43809;SDS011;29440;48.208;11.162;2023-01-01T08:02:54;4.63;;;2.55;;
43809;SDS011;29440;48.208;11.162;2023-01-01T08:05:20;3.95;;;2.80;;
43809;SDS011;29440;48.208;11.162;2023-01-01T08:07:46;5.22;;;2.67;;
43809;SDS011;29440;48.208;11.162;2023-01-01T08:10:14;5.22;;;2.28;;
43809;SDS011;29440;48.208;11.162;2023-01-01T08:12:40;5.75;;;2.88;;
43809;SDS011;29440;48.208;11.162;2023-01-01T08:15:06;5.75;;;3.35;;
43809;SDS011;29440;48.208;11.162;2023-01-01T08:17:32;6.00;;;3.35;;
43809;SDS011;29440;48.208;11.162;2023-01-01T08:19:58;6.78;;;4.32;;
43809;SDS011;29440;48.208;11.162;2023-01-01T08:22:24;6.45;;;4.35;;
43809;SDS011;29440;48.208;11.162;2023-01-01T08:24:49;4.28;;;2.85;;
43809;SDS011;29440;48.208;11.162;2023-01-01T08:27:15;4.80;;;2.92;;
43809;SDS011;29440;48.208;11.162;2023-01-01T08:29:41;3.58;;;2.40;;
43809;SDS011;29440;48.208;11.162;2023-01-01T08:32:07;3.83;;;2.38;;
43809;SDS011;29440;48.208;11.162;2023-01-01T08:34:33;3.88;;;1.85;;
43809;SDS011;29440;48.208;11.162;2023-01-01T08:36:59;3.85;;;2.33;;
43809;SDS011;29440;48.208;11.162;2023-01-01T08:39:24;3.13;;;1.90;;
43809;SDS011;29440;48.208;11.162;2023-01-01T08:41:50;6.53;;;2.72;;
43809;SDS011;29440;48.208;11.162;2023-01-01T08:44:16;5.05;;;3.05;;
43809;SDS011;29440;48.208;11.162;2023-01-01T08:46:41;4.72;;;2.47;;
43809;SDS011;29440;48.208;11.162;2023-01-01T08:49:07;5.55;;;2.53;;
43809;SDS011;29440;48.208;11.162;2023-01-01T08:51:32;4.57;;;2.20;;
43809;SDS011;29440;48.208;11.162;2023-01-01T08:53:58;4.72;;;2.40;;
43809;SDS011;29440;48.208;11.162;2023-01-01T08:56:25;3.88;;;1.95;;
43809;SDS011;29440;48.208;11.162;2023-01-01T08:58:50;3.35;;;2.10;;
43809;SDS011;29440;48.208;11.162;2023-01-01T09:01:16;3.45;;;2.55;;
43809;SDS011;29440;48.208;11.162;2023-01-01T09:03:41;4.30;;;2.38;;
43809;SDS011;29440;48.208;11.162;2023-01-01T09:06:07;5.35;;;2.40;;
43809;SDS011;29440;48.208;11.162;2023-01-01T09:08:33;3.58;;;2.22;;
43809;SDS011;29440;48.208;11.162;2023-01-01T09:11:00;3.63;;;1.80;;
43809;SDS011;29440;48.208;11.162;2023-01-01T09:13:27;3.65;;;2.13;;
43809;SDS011;29440;48.208;11.162;2023-01-01T09:15:54;3.38;;;2.10;;
43809;SDS011;29440;48.208;11.162;2023-01-01T09:18:20;4.43;;;2.45;;
43809;SDS011;29440;48.208;11.162;2023-01-01T09:20:46;4.22;;;2.50;;
43809;SDS011;29440;48.208;11.162;2023-01-01T09:23:12;3.70;;;2.35;;
43809;SDS011;29440;48.208;11.162;2023-01-01T09:25:38;3.67;;;1.90;;
43809;SDS011;29440;48.208;11.162;2023-01-01T09:28:05;4.57;;;2.10;;
43809;SDS011;29440;48.208;11.162;2023-01-01T09:30:32;4.60;;;2.00;;
43809;SDS011;29440;48.208;11.162;2023-01-01T09:32:59;4.45;;;1.77;;
43809;SDS011;29440;48.208;11.162;2023-01-01T09:35:25;3.95;;;2.00;;
43809;SDS011;29440;48.208;11.162;2023-01-01T09:37:51;2.67;;;1.67;;
43809;SDS011;29440;48.208;11.162;2023-01-01T09:42:55;4.40;;;2.15;;
43809;SDS011;29440;48.208;11.162;2023-01-01T09:45:33;4.40;;;2.00;;
43809;SDS011;29440;48.208;11.162;2023-01-01T09:48:08;4.35;;;1.48;;
43809;SDS011;29440;48.208;11.162;2023-01-01T09:50:40;2.60;;;1.42;;
43809;SDS011;29440;48.208;11.162;2023-01-01T09:53:26;2.72;;;1.48;;
43809;SDS011;29440;48.208;11.162;2023-01-01T09:56:01;3.53;;;2.10;;
43809;SDS011;29440;48.208;11.162;2023-01-01T09:58:33;6.65;;;4.25;;
43809;SDS011;29440;48.208;11.162;2023-01-01T10:01:02;4.75;;;2.63;;
43809;SDS011;29440;48.208;11.162;2023-01-01T10:06:29;2.63;;;1.33;;
43809;SDS011;29440;48.208;11.162;2023-01-01T10:14:00;3.60;;;2.13;;
43809;SDS011;29440;48.208;11.162;2023-01-01T10:16:40;3.03;;;1.55;;
43809;SDS011;29440;48.208;11.162;2023-01-01T10:22:26;2.90;;;1.33;;
43809;SDS011;29440;48.208;11.162;2023-01-01T10:25:14;2.85;;;1.35;;
43809;SDS011;29440;48.208;11.162;2023-01-01T10:30:16;2.53;;;1.08;;
43809;SDS011;29440;48.208;11.162;2023-01-01T10:32:48;3.10;;;1.10;;
43809;SDS011;29440;48.208;11.162;2023-01-01T10:35:19;2.40;;;1.17;;
43809;SDS011;29440;48.208;11.162;2023-01-01T10:37:47;2.50;;;1.20;;
43809;SDS011;29440;48.208;11.162;2023-01-01T10:40:18;2.30;;;1.30;;
43809;SDS011;29440;48.208;11.162;2023-01-01T10:42:46;1.88;;;0.82;;
43809;SDS011;29440;48.208;11.162;2023-01-01T10:45:14;2.47;;;1.10;;
43809;SDS011;29440;48.208;11.162;2023-01-01T10:50:43;2.03;;;1.00;;
43809;SDS011;29440;48.208;11.162;2023-01-01T11:01:03;2.55;;;1.00;;
43809;SDS011;29440;48.208;11.162;2023-01-01T11:03:32;1.98;;;0.98;;
43809;SDS011;29440;48.208;11.162;2023-01-01T11:05:59;1.77;;;0.90;;
43809;SDS011;29440;48.208;11.162;2023-01-01T11:08:27;4.30;;;1.00;;
43809;SDS011;29440;48.208;11.162;2023-01-01T11:10:56;1.90;;;0.88;;
43809;SDS011;29440;48.208;11.162;2023-01-01T11:13:23;1.90;;;0.90;;
43809;SDS011;29440;48.208;11.162;2023-01-01T11:15:50;1.70;;;0.80;;
43809;SDS011;29440;48.208;11.162;2023-01-01T11:18:19;2.25;;;0.73;;
43809;SDS011;29440;48.208;11.162;2023-01-01T11:20:53;1.73;;;0.70;;
43809;SDS011;29440;48.208;11.162;2023-01-01T11:26:00;1.70;;;0.70;;
43809;SDS011;29440;48.208;11.162;2023-01-01T11:28:29;2.17;;;1.00;;
43809;SDS011;29440;48.208;11.162;2023-01-01T11:33:27;2.13;;;0.90;;
43809;SDS011;29440;48.208;11.162;2023-01-01T11:35:56;2.78;;;0.88;;
43809;SDS011;29440;48.208;11.162;2023-01-01T11:38:22;2.15;;;0.68;;
43809;SDS011;29440;48.208;11.162;2023-01-01T11:40:53;3.33;;;0.93;;
43809;SDS011;29440;48.208;11.162;2023-01-01T11:43:24;1.92;;;0.80;;
43809;SDS011;29440;48.208;11.162;2023-01-01T11:45:52;2.00;;;0.80;;
43809;SDS011;29440;48.208;11.162;2023-01-01T11:48:27;1.73;;;0.70;;
43809;SDS011;29440;48.208;11.162;2023-01-01T11:50:56;2.60;;;0.90;;
43809;SDS011;29440;48.208;11.162;2023-01-01T11:53:27;1.30;;;0.70;;
43809;SDS011;29440;48.208;11.162;2023-01-01T11:58:52;1.52;;;0.75;;
43809;SDS011;29440;48.208;11.162;2023-01-01T12:01:33;1.85;;;0.80;;
43809;SDS011;29440;48.208;11.162;2023-01-01T12:04:09;2.85;;;1.00;;
43809;SDS011;29440;48.208;11.162;2023-01-01T12:06:40;3.75;;;0.90;;
43809;SDS011;29440;48.208;11.162;2023-01-01T12:12:07;2.28;;;0.98;;
43809;SDS011;29440;48.208;11.162;2023-01-01T12:17:38;1.90;;;0.90;;
43809;SDS011;29440;48.208;11.162;2023-01-01T12:22:54;1.98;;;0.80;;
43809;SDS011;29440;48.208;11.162;2023-01-01T12:25:22;1.50;;;0.80;;
43809;SDS011;29440;48.208;11.162;2023-01-01T12:36:00;2.08;;;0.70;;
43809;SDS011;29440;48.208;11.162;2023-01-01T12:38:46;3.00;;;0.80;;
43809;SDS011;29440;48.208;11.162;2023-01-01T12:44:25;2.78;;;0.80;;
43809;SDS011;29440;48.208;11.162;2023-01-01T12:49:49;0.93;;;0.60;;
43809;SDS011;29440;48.208;11.162;2023-01-01T12:52:49;1.70;;;0.70;;
43809;SDS011;29440;48.208;11.162;2023-01-01T12:55:35;1.70;;;0.70;;
43809;SDS011;29440;48.208;11.162;2023-01-01T13:00:40;3.65;;;0.82;;
43809;SDS011;29440;48.208;11.162;2023-01-01T13:06:13;1.67;;;0.70;;
43809;SDS011;29440;48.208;11.162;2023-01-01T13:08:46;3.28;;;1.05;;
43809;SDS011;29440;48.208;11.162;2023-01-01T13:11:19;1.83;;;0.80;;
43809;SDS011;29440;48.208;11.162;2023-01-01T13:13:47;1.40;;;0.70;;
43809;SDS011;29440;48.208;11.162;2023-01-01T13:16:17;2.13;;;0.80;;
43809;SDS011;29440;48.208;11.162;2023-01-01T13:19:01;2.10;;;1.00;;
43809;SDS011;29440;48.208;11.162;2023-01-01T13:21:29;1.20;;;0.60;;
43809;SDS011;29440;48.208;11.162;2023-01-01T13:24:17;1.58;;;0.60;;
43809;SDS011;29440;48.208;11.162;2023-01-01T13:26:49;1.30;;;0.60;;
43809;SDS011;29440;48.208;11.162;2023-01-01T13:39:56;1.27;;;0.60;;
43809;SDS011;29440;48.208;11.162;2023-01-01T13:45:28;1.75;;;0.68;;
43809;SDS011;29440;48.208;11.162;2023-01-01T13:53:42;2.88;;;0.60;;
43809;SDS011;29440;48.208;11.162;2023-01-01T14:02:21;3.80;;;1.13;;
43809;SDS011;29440;48.208;11.162;2023-01-01T14:05:23;2.53;;;0.73;;
43809;SDS011;29440;48.208;11.162;2023-01-01T14:07:59;1.35;;;0.73;;
43809;SDS011;29440;48.208;11.162;2023-01-01T14:13:12;1.48;;;0.70;;
43809;SDS011;29440;48.208;11.162;2023-01-01T14:15:50;1.85;;;0.52;;
43809;SDS011;29440;48.208;11.162;2023-01-01T14:18:21;4.05;;;0.70;;
43809;SDS011;29440;48.208;11.162;2023-01-01T14:20:53;1.90;;;0.73;;
43809;SDS011;29440;48.208;11.162;2023-01-01T14:23:30;1.92;;;0.90;;
43809;SDS011;29440;48.208;11.162;2023-01-01T14:26:00;1.92;;;0.80;;
43809;SDS011;29440;48.208;11.162;2023-01-01T14:28:29;1.35;;;0.70;;
43809;SDS011;29440;48.208;11.162;2023-01-01T14:30:56;3.05;;;0.68;;
43809;SDS011;29440;48.208;11.162;2023-01-01T14:33:28;2.20;;;0.70;;
43809;SDS011;29440;48.208;11.162;2023-01-01T14:35:57;1.67;;;0.80;;
43809;SDS011;29440;48.208;11.162;2023-01-01T14:38:30;1.50;;;0.60;;
43809;SDS011;29440;48.208;11.162;2023-01-01T14:43:37;0.95;;;0.57;;
43809;SDS011;29440;48.208;11.162;2023-01-01T14:46:04;1.70;;;0.88;;
43809;SDS011;29440;48.208;11.162;2023-01-01T14:48:31;1.63;;;0.77;;
43809;SDS011;29440;48.208;11.162;2023-01-01T14:50:58;1.90;;;0.90;;
43809;SDS011;29440;48.208;11.162;2023-01-01T14:53:31;2.03;;;0.73;;
43809;SDS011;29440;48.208;11.162;2023-01-01T14:55:58;11.50;;;7.53;;
43809;SDS011;29440;48.208;11.162;2023-01-01T14:58:24;9.75;;;6.85;;
43809;SDS011;29440;48.208;11.162;2023-01-01T15:00:53;4.80;;;2.75;;
43809;SDS011;29440;48.208;11.162;2023-01-01T15:03:37;4.60;;;2.33;;
43809;SDS011;29440;48.208;11.162;2023-01-01T15:06:02;3.72;;;1.77;;
43809;SDS011;29440;48.208;11.162;2023-01-01T15:08:31;1.85;;;1.40;;
43809;SDS011;29440;48.208;11.162;2023-01-01T15:10:57;2.28;;;1.40;;
43809;SDS011;29440;48.208;11.162;2023-01-01T15:13:23;3.28;;;1.40;;
43809;SDS011;29440;48.208;11.162;2023-01-01T15:15:53;3.67;;;0.80;;
43809;SDS011;29440;48.208;11.162;2023-01-01T15:18:36;2.90;;;1.23;;
43809;SDS011;29440;48.208;11.162;2023-01-01T15:21:04;2.00;;;1.33;;
43809;SDS011;29440;48.208;11.162;2023-01-01T15:23:50;2.08;;;1.10;;
43809;SDS011;29440;48.208;11.162;2023-01-01T15:26:33;2.13;;;1.00;;
43809;SDS011;29440;48.208;11.162;2023-01-01T15:29:16;2.85;;;1.05;;
43809;SDS011;29440;48.208;11.162;2023-01-01T15:32:00;1.55;;;0.75;;
43809;SDS011;29440;48.208;11.162;2023-01-01T15:34:29;2.85;;;0.82;;
43809;SDS011;29440;48.208;11.162;2023-01-01T15:37:05;3.40;;;0.80;;
43809;SDS011;29440;48.208;11.162;2023-01-01T15:41:57;3.15;;;0.98;;
43809;SDS011;29440;48.208;11.162;2023-01-01T15:44:26;1.95;;;0.90;;
43809;SDS011;29440;48.208;11.162;2023-01-01T15:47:10;2.38;;;0.82;;
43809;SDS011;29440;48.208;11.162;2023-01-01T15:49:38;16.25;;;7.65;;
43809;SDS011;29440;48.208;11.162;2023-01-01T15:52:04;3.10;;;0.90;;
43809;SDS011;29440;48.208;11.162;2023-01-01T15:54:39;1.92;;;1.00;;
43809;SDS011;29440;48.208;11.162;2023-01-01T15:57:17;3.72;;;0.85;;
43809;SDS011;29440;48.208;11.162;2023-01-01T15:59:45;2.03;;;0.90;;
43809;SDS011;29440;48.208;11.162;2023-01-01T16:02:46;1.90;;;1.25;;
43809;SDS011;29440;48.208;11.162;2023-01-01T16:05:11;7.70;;;5.57;;
43809;SDS011;29440;48.208;11.162;2023-01-01T16:07:39;6.88;;;5.53;;
43809;SDS011;29440;48.208;11.162;2023-01-01T16:10:05;8.10;;;4.88;;
43809;SDS011;29440;48.208;11.162;2023-01-01T16:12:38;2.97;;;1.40;;
43809;SDS011;29440;48.208;11.162;2023-01-01T16:15:04;2.08;;;1.02;;
43809;SDS011;29440;48.208;11.162;2023-01-01T16:17:30;11.73;;;6.50;;
43809;SDS011;29440;48.208;11.162;2023-01-01T16:19:55;11.50;;;8.10;;
43809;SDS011;29440;48.208;11.162;2023-01-01T16:22:21;5.97;;;2.00;;
43809;SDS011;29440;48.208;11.162;2023-01-01T16:24:46;3.55;;;1.67;;
43809;SDS011;29440;48.208;11.162;2023-01-01T16:27:12;4.40;;;2.67;;
43809;SDS011;29440;48.208;11.162;2023-01-01T16:29:38;4.40;;;2.13;;
43809;SDS011;29440;48.208;11.162;2023-01-01T16:32:04;5.15;;;1.70;;
43809;SDS011;29440;48.208;11.162;2023-01-01T16:34:29;2.97;;;1.30;;
43809;SDS011;29440;48.208;11.162;2023-01-01T16:36:55;4.25;;;2.50;;
43809;SDS011;29440;48.208;11.162;2023-01-01T16:39:20;8.35;;;3.75;;
43809;SDS011;29440;48.208;11.162;2023-01-01T16:41:46;5.90;;;3.28;;
43809;SDS011;29440;48.208;11.162;2023-01-01T16:44:15;11.65;;;4.80;;
43809;SDS011;29440;48.208;11.162;2023-01-01T16:46:40;4.45;;;2.00;;